createdAt,value
2023-08-14T00:02:35.335Z,89.81
2023-08-14T00:07:36.949Z,88.88
2023-08-14T00:12:38.667Z,88.60
2023-08-14T00:17:40.582Z,88.94
2023-08-14T00:22:42.268Z,89.47
2023-08-14T00:27:43.888Z,88.58
2023-08-14T00:32:45.591Z,88.93
2023-08-14T00:37:48.689Z,89.75
2023-08-14T00:42:50.431Z,89.75
2023-08-14T00:47:52.742Z,90.71
2023-08-14T00:52:57.116Z,90.64
2023-08-14T00:58:00.170Z,91.40
2023-08-14T01:03:02.875Z,91.04
2023-08-14T01:08:04.764Z,92.07
2023-08-14T01:13:14.357Z,93.34
2023-08-14T01:18:18.302Z,92.38
2023-08-14T01:23:30.088Z,91.95
2023-08-14T01:28:32.032Z,92.65
2023-08-14T01:33:33.718Z,92.30
2023-08-14T01:38:51.498Z,92.17
2023-08-14T01:43:56.435Z,93.21
2023-08-14T01:49:00.051Z,93.35
2023-08-14T01:54:01.867Z,93.65
2023-08-14T01:59:03.680Z,94.36
2023-08-14T02:04:07.746Z,96.51
2023-08-14T02:09:09.502Z,96.32
2023-08-14T02:14:11.217Z,97.61
2023-08-14T02:19:13.029Z,97.94
2023-08-14T02:24:14.757Z,96.89
2023-08-14T02:29:16.487Z,97.00
2023-08-14T02:34:57.267Z,97.38
2023-08-14T02:39:59.019Z,97.34
2023-08-14T02:45:01.533Z,97.00
2023-08-14T02:50:03.196Z,95.86
2023-08-14T02:55:06.566Z,96.28
2023-08-14T03:00:09.144Z,96.71
2023-08-14T03:05:10.808Z,96.90
2023-08-14T03:10:12.479Z,97.65
2023-08-14T03:15:14.108Z,97.19
2023-08-14T03:20:16.053Z,98.93
2023-08-14T03:25:17.897Z,98.33
2023-08-14T03:30:19.538Z,97.93
2023-08-14T03:35:21.451Z,98.07
2023-08-14T03:40:23.264Z,98.10
2023-08-14T03:45:25.063Z,97.82
2023-08-14T03:50:28.738Z,97.28
2023-08-14T03:55:30.423Z,97.95
2023-08-14T04:00:32.420Z,99.67
2023-08-14T04:05:39.114Z,98.37
2023-08-14T04:10:41.024Z,98.50
2023-08-14T04:15:43.200Z,98.33
2023-08-14T04:20:44.838Z,98.55
2023-08-14T04:25:46.505Z,98.77
2023-08-14T04:30:48.352Z,97.63
2023-08-14T04:35:50.185Z,96.78
2023-08-14T04:40:51.932Z,96.94
2023-08-14T04:45:54.452Z,98.13
2023-08-14T04:50:56.262Z,97.07
2023-08-14T04:55:58.021Z,96.37
2023-08-14T05:00:59.781Z,95.59
2023-08-14T05:06:02.776Z,95.20
2023-08-14T05:11:04.513Z,95.15
2023-08-14T05:16:08.844Z,94.34
2023-08-14T05:21:12.498Z,94.98
2023-08-14T05:26:14.280Z,93.88
2023-08-14T05:31:15.928Z,94.67
2023-08-14T05:36:17.645Z,93.53
2023-08-14T05:41:20.120Z,91.68
2023-08-14T05:46:24.994Z,91.06
2023-08-14T05:51:26.640Z,90.66
2023-08-14T05:56:28.277Z,88.67
2023-08-14T06:01:29.911Z,87.67
2023-08-14T06:06:31.573Z,87.73
2023-08-14T06:11:33.280Z,87.24
2023-08-14T06:16:35.030Z,87.24
2023-08-14T06:21:36.707Z,85.04
2023-08-14T06:26:38.382Z,83.26
2023-08-14T06:31:40.080Z,81.33
2023-08-14T06:36:41.839Z,79.40
2023-08-14T06:41:43.503Z,80.13
2023-08-14T06:46:45.249Z,78.93
2023-08-14T06:51:46.942Z,77.58
2023-08-14T06:56:48.626Z,76.98
2023-08-14T07:01:50.340Z,75.94
2023-08-14T07:06:51.977Z,74.28
2023-08-14T07:11:53.710Z,74.05
2023-08-14T07:16:55.486Z,72.49
2023-08-14T07:21:57.185Z,69.90
2023-08-14T07:26:58.998Z,69.49
2023-08-14T07:32:00.693Z,69.46
2023-08-14T07:37:02.360Z,69.14
2023-08-14T07:42:04.129Z,68.99
2023-08-14T07:47:06.888Z,70.02
2023-08-14T07:52:10.445Z,69.95
2023-08-14T07:57:12.103Z,69.74
2023-08-14T08:02:13.909Z,70.71
2023-08-14T08:07:16.051Z,69.82
2023-08-14T08:12:18.157Z,69.42
2023-08-14T08:17:19.994Z,70.36
2023-08-14T08:22:22.005Z,70.95
2023-08-14T08:27:23.946Z,70.18
2023-08-14T08:32:26.499Z,70.86
2023-08-14T08:37:28.977Z,71.40
2023-08-14T08:42:30.639Z,71.74
2023-08-14T08:47:36.151Z,71.29
2023-08-14T08:52:38.165Z,71.58
2023-08-14T08:57:40.149Z,71.30
2023-08-14T09:02:41.926Z,72.69
2023-08-14T09:07:44.593Z,72.78
2023-08-14T09:12:46.264Z,73.09
2023-08-14T09:17:47.891Z,71.83
2023-08-14T09:22:49.739Z,72.52
2023-08-14T09:27:51.476Z,70.10
2023-08-14T09:32:54.316Z,70.40
2023-08-14T09:37:55.994Z,70.04
2023-08-14T09:42:57.984Z,69.26
2023-08-14T09:48:06.674Z,69.66
2023-08-14T09:53:08.612Z,69.06
2023-08-14T09:58:10.961Z,68.44
2023-08-14T10:03:12.770Z,68.83
2023-08-14T10:08:14.827Z,67.90
2023-08-14T10:13:17.221Z,65.88
2023-08-14T10:18:21.001Z,66.68
2023-08-14T10:23:22.832Z,66.28
2023-08-14T10:28:25.051Z,65.71
2023-08-14T10:33:27.210Z,65.49
2023-08-14T10:38:47.586Z,64.66
2023-08-14T10:43:51.744Z,65.32
2023-08-14T10:48:53.663Z,64.76
2023-08-14T10:54:22.741Z,65.03
2023-08-14T10:59:29.162Z,65.82
2023-08-14T11:04:31.810Z,65.05
2023-08-14T11:09:34.974Z,64.20
2023-08-14T11:14:38.933Z,65.98
2023-08-14T11:19:40.687Z,66.75
2023-08-14T11:24:42.748Z,66.58
2023-08-14T11:29:45.347Z,67.00
2023-08-14T11:34:53.886Z,67.85
2023-08-14T11:39:55.605Z,67.90
2023-08-14T11:44:57.237Z,67.35
2023-08-14T11:49:59.084Z,67.86
2023-08-14T11:55:01.548Z,68.63
2023-08-14T12:00:11.343Z,69.63
2023-08-14T12:05:13.022Z,69.92
2023-08-14T12:10:17.649Z,70.77
2023-08-14T12:15:24.269Z,68.60
2023-08-14T12:20:26.612Z,69.26
2023-08-14T12:25:29.729Z,67.43
2023-08-14T12:30:31.550Z,67.84
2023-08-14T12:35:33.186Z,66.38
2023-08-14T12:40:35.321Z,65.63
2023-08-14T12:45:36.941Z,65.30
2023-08-14T12:50:38.591Z,65.74
2023-08-14T12:55:40.275Z,66.67
2023-08-14T13:00:42.092Z,65.31
2023-08-14T13:05:46.039Z,67.00
2023-08-14T13:10:47.692Z,66.71
2023-08-14T13:15:49.312Z,67.94
2023-08-14T13:20:51.185Z,68.92
2023-08-14T13:25:52.854Z,69.20
2023-08-14T13:30:54.606Z,69.58
2023-08-14T13:35:56.264Z,69.89
2023-08-14T13:40:57.997Z,70.10
2023-08-14T13:45:59.766Z,69.99
2023-08-14T13:51:01.522Z,71.08
2023-08-14T13:56:03.190Z,69.59
2023-08-14T14:01:04.838Z,68.87
2023-08-14T14:06:06.708Z,69.45
2023-08-14T14:11:08.444Z,69.23
2023-08-14T14:16:10.098Z,70.76
2023-08-14T14:21:11.773Z,70.97
2023-08-14T14:26:13.452Z,71.03
2023-08-14T14:31:15.060Z,69.23
2023-08-14T14:36:16.702Z,69.12
2023-08-14T14:41:18.379Z,69.95
2023-08-14T14:46:20.060Z,68.07
2023-08-14T14:51:21.758Z,68.08
2023-08-14T14:56:23.456Z,67.28
2023-08-14T15:01:25.096Z,65.35
2023-08-14T15:06:26.776Z,64.13
2023-08-14T15:11:28.366Z,64.42
2023-08-14T15:16:33.083Z,63.22
2023-08-14T15:21:35.191Z,63.49
2023-08-14T15:26:36.811Z,62.34
2023-08-14T15:31:38.505Z,61.32
2023-08-14T15:36:40.138Z,60.31
2023-08-14T15:41:42.847Z,60.19
2023-08-14T15:46:44.465Z,61.98
2023-08-14T15:51:46.086Z,63.29
2023-08-14T15:56:47.764Z,63.22
2023-08-14T16:01:49.360Z,63.06
2023-08-14T16:06:51.001Z,63.14
2023-08-14T16:11:52.636Z,61.44
2023-08-14T16:16:54.387Z,60.86
2023-08-14T16:21:56.124Z,61.79
2023-08-14T16:26:59.707Z,62.07
2023-08-14T16:32:02.127Z,62.21
2023-08-14T16:37:04.711Z,62.44
2023-08-14T16:42:07.199Z,63.75
2023-08-14T16:47:08.904Z,63.67
2023-08-14T16:52:10.508Z,64.81
2023-08-14T16:57:12.110Z,66.06
2023-08-14T17:02:13.739Z,66.94
2023-08-14T17:07:15.397Z,67.76
2023-08-14T17:12:17.338Z,65.05
2023-08-14T17:17:19.419Z,63.51
2023-08-14T17:22:21.288Z,64.47
2023-08-14T17:27:23.274Z,65.40
2023-08-14T17:32:25.227Z,67.12
2023-08-14T17:37:26.943Z,67.71
2023-08-14T17:42:29.357Z,68.54
2023-08-14T17:47:34.805Z,70.65
2023-08-14T17:52:36.551Z,71.98
2023-08-14T17:57:38.380Z,72.10
2023-08-14T18:02:40.115Z,72.49
2023-08-14T18:07:43.192Z,72.00
2023-08-14T18:12:44.922Z,72.46
2023-08-14T18:17:46.718Z,72.11
2023-08-14T18:22:48.410Z,72.41
2023-08-14T18:27:50.287Z,72.75
2023-08-14T18:32:51.952Z,70.96
2023-08-14T18:37:54.294Z,73.13
2023-08-14T18:42:56.031Z,74.98
2023-08-14T18:47:57.695Z,77.24
2023-08-14T18:52:59.372Z,79.33
2023-08-14T18:58:01.055Z,80.71
2023-08-14T19:03:02.866Z,81.08
2023-08-14T19:08:06.591Z,81.09
2023-08-14T19:13:08.300Z,82.01
2023-08-14T19:18:10.011Z,83.16
2023-08-14T19:23:11.657Z,82.82
2023-08-14T19:28:21.761Z,81.67
2023-08-14T19:33:24.192Z,82.92
2023-08-14T19:38:25.850Z,82.79
2023-08-14T19:43:27.785Z,84.28
2023-08-14T19:48:29.390Z,84.68
2023-08-14T19:53:31.171Z,85.04
2023-08-14T19:58:32.830Z,85.52
2023-08-14T20:03:34.567Z,85.81
2023-08-14T20:08:36.285Z,85.65
2023-08-14T20:13:37.963Z,85.92
2023-08-14T20:18:39.704Z,86.08
2023-08-14T20:23:41.345Z,86.41
2023-08-14T20:28:44.290Z,84.37
2023-08-14T20:33:47.006Z,84.13
2023-08-14T20:38:48.976Z,85.08
2023-08-14T20:43:50.618Z,84.50
2023-08-14T20:48:52.302Z,84.45
2023-08-14T20:53:53.993Z,83.33
2023-08-14T20:58:55.626Z,85.09
2023-08-14T21:03:57.302Z,84.69
2023-08-14T21:08:58.988Z,85.66
2023-08-14T21:14:00.607Z,85.97
2023-08-14T21:19:02.483Z,85.74
2023-08-14T21:24:04.464Z,86.17
2023-08-14T21:29:06.260Z,85.71
2023-08-14T21:34:10.629Z,85.67
2023-08-14T21:39:15.190Z,85.98
2023-08-14T21:44:16.926Z,85.72
2023-08-14T21:49:18.567Z,86.92
2023-08-14T21:54:20.205Z,86.06
2023-08-14T21:59:21.885Z,85.40
2023-08-14T22:04:23.847Z,85.93
2023-08-14T22:09:25.557Z,85.69
2023-08-14T22:14:27.421Z,85.97
2023-08-14T22:19:29.016Z,86.33
2023-08-14T22:24:40.226Z,86.36
2023-08-14T22:29:42.665Z,87.05
2023-08-14T22:34:44.314Z,87.95
2023-08-14T22:39:45.970Z,86.83
2023-08-14T22:44:47.683Z,87.21
2023-08-14T22:49:49.298Z,85.42
2023-08-14T22:54:50.920Z,85.90
2023-08-14T22:59:52.495Z,86.94
2023-08-14T23:04:54.168Z,87.75
2023-08-14T23:09:55.764Z,86.37
2023-08-14T23:14:57.444Z,84.25
2023-08-14T23:19:59.110Z,82.20
2023-08-14T23:25:00.696Z,81.83
2023-08-14T23:30:02.405Z,77.97
2023-08-14T23:35:04.999Z,81.44
2023-08-14T23:40:07.156Z,81.54
2023-08-14T23:45:09.024Z,80.17
2023-08-14T23:50:10.695Z,80.40
2023-08-14T23:55:12.433Z,82.60
